Time;durP1;ratioP1;P1;durP2;ratioP2;P2;SDS_P1;SDS_P2;PMS_P1;PMS_P2;Temp;Humidity;BMP_temperature;BMP_pressure;BME280_temperature;BME280_humidity;BME280_pressure;Samples;Min_cycle;Max_cycle;Signal;HPM_P1;HPM_P2
2022/09/18 00:01:24;;;;;;;4.73;2.43;;;;;;;;;;5015168;28;20199;-63
2022/09/18 00:03:51;;;;;;;11.13;3.67;;;;;;;;;;5015120;28;20230;-65
2022/09/18 00:06:19;;;;;;;11.93;2.70;;;;;;;;;;5013898;28;20652;-65
2022/09/18 00:08:45;;;;;;;5.00;2.07;;;;;;;;;;5015179;28;20176;-64
2022/09/18 00:11:12;;;;;;;9.97;2.63;;;;;;;;;;5014720;28;20215;-65
2022/09/18 00:13:39;;;;;;;8.90;2.63;;;;;;;;;;5014536;28;20238;-65
2022/09/18 00:16:06;;;;;;;5.63;2.40;;;;;;;;;;5013375;28;20707;-65
2022/09/18 00:21:16;;;;;;;5.90;2.37;;;;;;;;;;5014044;28;20219;-68
2022/09/18 00:23:42;;;;;;;10.37;2.40;;;;;;;;;;5013989;28;20199;-68
2022/09/18 00:26:08;;;;;;;4.83;2.10;;;;;;;;;;5015380;28;20198;-68
2022/09/18 00:28:35;;;;;;;11.47;2.83;;;;;;;;;;5014631;28;20183;-69
2022/09/18 00:31:11;;;;;;;7.23;2.47;;;;;;;;;;5014439;28;20196;-69
2022/09/18 00:33:38;;;;;;;8.37;2.93;;;;;;;;;;5013099;28;20171;-68
2022/09/18 00:36:05;;;;;;;7.50;2.00;;;;;;;;;;5014080;28;20183;-68
2022/09/18 00:38:31;;;;;;;13.67;2.67;;;;;;;;;;5013996;28;20191;-68
2022/09/18 00:41:01;;;;;;;9.73;3.07;;;;;;;;;;5013826;28;20664;-68
2022/09/18 00:43:29;;;;;;;10.37;2.73;;;;;;;;;;5014590;28;20200;-68
2022/09/18 00:45:57;;;;;;;11.33;3.33;;;;;;;;;;5013793;28;20180;-69
2022/09/18 00:48:24;;;;;;;7.13;2.60;;;;;;;;;;5012483;28;20180;-68
2022/09/18 00:50:50;;;;;;;7.10;2.50;;;;;;;;;;5012472;28;20234;-68
2022/09/18 00:53:17;;;;;;;15.13;3.43;;;;;;;;;;5013838;28;20184;-68
2022/09/18 00:55:43;;;;;;;9.60;2.80;;;;;;;;;;5013544;28;20204;-68
2022/09/18 00:58:09;;;;;;;8.10;2.63;;;;;;;;;;5012189;28;20188;-68
2022/09/18 01:00:36;;;;;;;9.27;2.30;;;;;;;;;;5013484;28;20253;-68
2022/09/18 01:03:02;;;;;;;15.40;3.37;;;;;;;;;;5012114;28;20238;-69
2022/09/18 01:05:52;;;;;;;8.57;3.27;;;;;;;;;;5013470;28;20548;-69
2022/09/18 01:08:39;;;;;;;11.37;2.87;;;;;;;;;;5013706;28;20530;-69
2022/09/18 01:11:20;;;;;;;10.67;2.67;;;;;;;;;;5011795;28;20592;-68
2022/09/18 01:13:54;;;;;;;7.30;2.40;;;;;;;;;;5012397;28;20274;-68
2022/09/18 01:16:22;;;;;;;6.60;2.87;;;;;;;;;;5013583;28;20202;-69
2022/09/18 01:18:56;;;;;;;7.23;2.20;;;;;;;;;;5013306;28;20262;-68
2022/09/18 01:21:29;;;;;;;10.67;3.00;;;;;;;;;;5013440;28;20697;-69
2022/09/18 01:24:05;;;;;;;10.90;2.43;;;;;;;;;;5012036;28;20719;-69
2022/09/18 01:26:50;;;;;;;9.07;2.97;;;;;;;;;;5013597;28;20167;-69
2022/09/18 01:29:16;;;;;;;10.20;2.73;;;;;;;;;;5013205;28;20225;-68
2022/09/18 01:31:46;;;;;;;4.80;2.40;;;;;;;;;;5011982;28;20279;-69
2022/09/18 01:34:17;;;;;;;8.37;3.30;;;;;;;;;;5012028;28;20193;-69
2022/09/18 01:36:45;;;;;;;6.27;2.40;;;;;;;;;;5013383;28;20708;-68
2022/09/18 01:39:14;;;;;;;6.57;2.50;;;;;;;;;;5013432;28;20200;-69
2022/09/18 01:41:42;;;;;;;5.00;2.07;;;;;;;;;;5015118;28;20216;-69
2022/09/18 01:44:11;;;;;;;6.50;2.73;;;;;;;;;;5015804;28;20226;-69
2022/09/18 01:46:38;;;;;;;6.33;2.33;;;;;;;;;;5017089;28;20225;-68
2022/09/18 01:49:10;;;;;;;9.67;2.13;;;;;;;;;;5017053;28;20207;-68
2022/09/18 01:51:38;;;;;;;6.10;1.90;;;;;;;;;;5017180;28;20235;-69
2022/09/18 01:54:09;;;;;;;10.77;2.73;;;;;;;;;;5016865;28;20187;-69
2022/09/18 01:56:37;;;;;;;7.20;2.10;;;;;;;;;;5016872;28;20171;-69
2022/09/18 01:59:05;;;;;;;6.73;2.43;;;;;;;;;;5016717;28;20281;-69
2022/09/18 02:01:33;;;;;;;6.17;2.20;;;;;;;;;;5015467;28;20253;-70
2022/09/18 02:04:01;;;;;;;9.07;2.93;;;;;;;;;;5016805;28;20573;-69
2022/09/18 02:06:38;;;;;;;9.23;2.87;;;;;;;;;;5015477;28;20643;-69
2022/09/18 02:09:08;;;;;;;7.17;2.03;;;;;;;;;;5016945;28;20199;-68
2022/09/18 02:11:34;;;;;;;9.77;2.70;;;;;;;;;;5016625;28;20287;-69
2022/09/18 02:14:27;;;;;;;11.63;2.50;;;;;;;;;;5016571;28;20532;-68
2022/09/18 02:16:57;;;;;;;6.37;2.07;;;;;;;;;;5012421;28;20199;-68
2022/09/18 02:19:28;;;;;;;8.87;2.63;;;;;;;;;;5016714;28;20218;-68
2022/09/18 02:21:55;;;;;;;6.73;2.53;;;;;;;;;;5015156;28;20233;-69
2022/09/18 02:24:23;;;;;;;12.43;2.83;;;;;;;;;;5016315;28;20287;-69
2022/09/18 02:26:51;;;;;;;14.90;2.87;;;;;;;;;;5016237;28;20670;-69
2022/09/18 02:29:17;;;;;;;7.77;3.10;;;;;;;;;;5016411;28;20199;-69
2022/09/18 02:31:44;;;;;;;6.13;2.40;;;;;;;;;;5016264;28;20176;-69
2022/09/18 02:34:10;;;;;;;6.07;2.40;;;;;;;;;;5014914;28;20183;-69
2022/09/18 02:36:50;;;;;;;7.70;2.50;;;;;;;;;;5016197;28;20176;-69
2022/09/18 02:39:30;;;;;;;9.63;2.73;;;;;;;;;;5014824;28;20207;-68
2022/09/18 02:42:11;;;;;;;8.47;2.67;;;;;;;;;;5014896;28;20183;-69
2022/09/18 02:45:05;;;;;;;7.90;2.80;;;;;;;;;;5016020;28;20191;-69
2022/09/18 02:47:35;;;;;;;5.47;2.60;;;;;;;;;;5014579;28;20569;-70
2022/09/18 02:50:13;;;;;;;11.40;3.53;;;;;;;;;;5014619;28;20691;-68
2022/09/18 02:52:54;;;;;;;6.40;3.77;;;;;;;;;;5015622;28;20537;-69
2022/09/18 02:55:26;;;;;;;7.23;4.80;;;;;;;;;;5016294;28;20222;-69
2022/09/18 02:57:56;;;;;;;9.17;5.30;;;;;;;;;;5016282;28;20226;-68
2022/09/18 03:00:22;;;;;;;9.57;5.93;;;;;;;;;;5015629;28;20202;-69
2022/09/18 03:02:51;;;;;;;10.70;5.63;;;;;;;;;;5015584;28;20188;-69
2022/09/18 03:05:18;;;;;;;13.17;6.03;;;;;;;;;;5015495;28;20258;-69
2022/09/18 03:07:44;;;;;;;11.63;5.90;;;;;;;;;;5014240;28;20662;-69
2022/09/18 03:10:10;;;;;;;11.43;4.97;;;;;;;;;;5015602;28;20204;-69
2022/09/18 03:12:36;;;;;;;12.70;5.70;;;;;;;;;;5014079;28;20190;-69
2022/09/18 03:15:02;;;;;;;9.47;4.67;;;;;;;;;;5014212;28;20184;-69
2022/09/18 03:17:28;;;;;;;7.00;4.60;;;;;;;;;;5015552;28;20187;-69
2022/09/18 03:19:54;;;;;;;7.93;4.10;;;;;;;;;;5013838;28;20235;-69
2022/09/18 03:22:20;;;;;;;6.90;3.60;;;;;;;;;;5015338;28;20184;-69
2022/09/18 03:24:46;;;;;;;8.60;3.80;;;;;;;;;;5015412;28;20652;-69
2022/09/18 03:27:12;;;;;;;10.33;4.13;;;;;;;;;;5015428;28;20283;-69
2022/09/18 03:29:38;;;;;;;8.83;3.67;;;;;;;;;;5015076;28;20648;-69
2022/09/18 03:32:04;;;;;;;5.80;3.30;;;;;;;;;;5015096;28;20187;-68
2022/09/18 03:34:30;;;;;;;10.17;3.70;;;;;;;;;;5015090;28;20263;-68
2022/09/18 03:36:56;;;;;;;11.17;3.63;;;;;;;;;;5015223;28;20219;-69
2022/09/18 03:39:22;;;;;;;4.73;2.70;;;;;;;;;;5014980;28;20195;-68
2022/09/18 03:41:48;;;;;;;9.83;3.30;;;;;;;;;;5013992;28;20186;-68
2022/09/18 03:44:14;;;;;;;6.50;3.43;;;;;;;;;;5014937;28;20203;-68
2022/09/18 03:46:40;;;;;;;9.03;3.03;;;;;;;;;;5015041;28;20184;-68
2022/09/18 03:49:06;;;;;;;6.13;2.77;;;;;;;;;;5014683;28;20282;-68
2022/09/18 03:51:32;;;;;;;9.23;2.77;;;;;;;;;;5013767;28;20242;-68
2022/09/18 03:53:58;;;;;;;10.97;3.17;;;;;;;;;;5014645;28;20195;-69
2022/09/18 03:56:24;;;;;;;8.80;3.30;;;;;;;;;;5013446;28;20562;-68
2022/09/18 03:58:52;;;;;;;9.07;4.03;;;;;;;;;;5014468;28;20211;-68
2022/09/18 04:01:17;;;;;;;9.73;3.57;;;;;;;;;;5013172;28;20195;-68
2022/09/18 04:03:43;;;;;;;7.70;2.97;;;;;;;;;;5013889;28;20571;-68
2022/09/18 04:06:09;;;;;;;5.83;3.00;;;;;;;;;;5014430;28;20176;-68
2022/09/18 04:08:37;;;;;;;9.00;3.53;;;;;;;;;;5014656;28;20218;-68
2022/09/18 04:11:03;;;;;;;7.13;3.07;;;;;;;;;;5013093;28;20286;-68
2022/09/18 04:13:30;;;;;;;6.67;3.03;;;;;;;;;;5014757;28;20180;-69
2022/09/18 04:15:56;;;;;;;8.80;2.80;;;;;;;;;;5012979;28;20636;-68
2022/09/18 04:18:22;;;;;;;9.30;3.13;;;;;;;;;;5014458;28;20191;-68
2022/09/18 04:20:48;;;;;;;7.33;3.20;;;;;;;;;;5012773;28;20656;-68
2022/09/18 04:23:14;;;;;;;7.40;2.90;;;;;;;;;;5014126;28;20183;-68
2022/09/18 04:25:40;;;;;;;6.90;3.00;;;;;;;;;;5014117;28;20652;-68
2022/09/18 04:28:06;;;;;;;7.37;3.00;;;;;;;;;;5014326;28;20640;-68
2022/09/18 04:30:32;;;;;;;8.30;3.27;;;;;;;;;;5013964;28;20273;-68
2022/09/18 04:32:58;;;;;;;7.73;3.00;;;;;;;;;;5014238;28;20262;-69
2022/09/18 04:35:24;;;;;;;11.10;3.30;;;;;;;;;;5013926;28;20191;-69
2022/09/18 04:37:50;;;;;;;10.20;3.47;;;;;;;;;;5013917;28;20234;-68
2022/09/18 04:40:16;;;;;;;7.10;3.40;;;;;;;;;;5012578;28;20622;-68
2022/09/18 04:42:42;;;;;;;10.47;3.80;;;;;;;;;;5014372;28;20636;-68
2022/09/18 04:45:09;;;;;;;9.87;3.60;;;;;;;;;;5013691;28;20196;-68
2022/09/18 04:47:35;;;;;;;5.50;2.93;;;;;;;;;;5012561;28;20275;-68
2022/09/18 04:50:02;;;;;;;10.83;3.00;;;;;;;;;;5012401;28;20287;-68
2022/09/18 04:52:29;;;;;;;13.33;3.67;;;;;;;;;;5013661;28;20179;-69
2022/09/18 04:54:54;;;;;;;13.57;3.47;;;;;;;;;;5013707;28;20637;-68
2022/09/18 04:57:20;;;;;;;7.17;3.40;;;;;;;;;;5012403;28;20180;-68
2022/09/18 04:59:46;;;;;;;6.77;3.77;;;;;;;;;;5013600;28;20199;-68
2022/09/18 05:02:12;;;;;;;6.03;4.47;;;;;;;;;;5013564;28;20210;-68
2022/09/18 05:04:38;;;;;;;10.97;5.40;;;;;;;;;;5013505;28;20269;-68
2022/09/18 05:07:05;;;;;;;10.63;5.67;;;;;;;;;;5012226;28;20176;-68
2022/09/18 05:09:31;;;;;;;14.30;6.03;;;;;;;;;;5013620;28;20192;-68
2022/09/18 05:11:57;;;;;;;12.83;5.47;;;;;;;;;;5013438;28;20180;-68
2022/09/18 05:14:23;;;;;;;12.33;6.17;;;;;;;;;;5013465;28;20532;-68
2022/09/18 05:16:48;;;;;;;8.77;5.97;;;;;;;;;;5013358;28;20190;-68
2022/09/18 05:19:14;;;;;;;7.40;5.80;;;;;;;;;;5013663;28;20631;-69
2022/09/18 05:21:40;;;;;;;14.27;6.37;;;;;;;;;;5013797;28;20172;-69
2022/09/18 05:24:06;;;;;;;12.63;6.00;;;;;;;;;;5013336;28;20299;-69
2022/09/18 05:26:33;;;;;;;14.27;6.57;;;;;;;;;;5013325;28;20603;-69
2022/09/18 05:28:59;;;;;;;11.47;6.03;;;;;;;;;;5013333;28;20207;-69
2022/09/18 05:31:25;;;;;;;12.47;6.23;;;;;;;;;;5012039;28;20211;-69
2022/09/18 05:33:51;;;;;;;14.97;6.43;;;;;;;;;;5013177;28;20180;-69
2022/09/18 05:36:17;;;;;;;10.70;6.03;;;;;;;;;;5013251;28;20179;-69
2022/09/18 05:38:44;;;;;;;10.73;5.23;;;;;;;;;;5011945;28;20188;-68
2022/09/18 05:41:10;;;;;;;10.83;5.50;;;;;;;;;;5013232;28;20186;-69
2022/09/18 05:43:36;;;;;;;12.00;5.73;;;;;;;;;;5013140;28;20207;-69
2022/09/18 05:46:02;;;;;;;12.17;5.50;;;;;;;;;;5011879;28;20234;-69
2022/09/18 05:48:28;;;;;;;8.33;4.93;;;;;;;;;;5011798;28;20278;-69
2022/09/18 05:50:55;;;;;;;9.33;4.53;;;;;;;;;;5013101;28;20206;-69
2022/09/18 05:53:21;;;;;;;12.53;4.93;;;;;;;;;;5011835;28;20180;-69
2022/09/18 05:55:48;;;;;;;14.77;5.30;;;;;;;;;;5013029;28;20187;-69
2022/09/18 05:58:17;;;;;;;14.37;4.77;;;;;;;;;;5013000;28;20183;-70
2022/09/18 06:00:43;;;;;;;10.90;4.17;;;;;;;;;;5011931;28;20688;-68
2022/09/18 06:03:10;;;;;;;9.53;4.37;;;;;;;;;;5013246;28;20556;-68
2022/09/18 06:05:37;;;;;;;18.60;4.73;;;;;;;;;;5012958;28;20179;-68
2022/09/18 06:08:04;;;;;;;7.57;4.23;;;;;;;;;;5012953;28;20204;-68
2022/09/18 06:10:31;;;;;;;12.53;3.70;;;;;;;;;;5012899;28;20199;-68
2022/09/18 06:13:01;;;;;;;17.07;3.47;;;;;;;;;;5011777;28;20553;-68
2022/09/18 06:15:27;;;;;;;9.03;3.80;;;;;;;;;;5011619;28;20648;-68
2022/09/18 06:17:53;;;;;;;10.10;3.50;;;;;;;;;;5011666;28;20274;-68
2022/09/18 06:20:19;;;;;;;10.37;3.60;;;;;;;;;;5011564;28;20265;-68
2022/09/18 06:22:45;;;;;;;8.93;3.17;;;;;;;;;;5011567;28;20188;-68
2022/09/18 06:25:11;;;;;;;9.57;3.43;;;;;;;;;;5012669;28;20225;-68
2022/09/18 06:27:37;;;;;;;6.13;3.00;;;;;;;;;;5014471;28;20172;-69
2022/09/18 06:30:04;;;;;;;9.40;3.90;;;;;;;;;;5014934;28;20245;-69
2022/09/18 06:32:30;;;;;;;6.13;2.63;;;;;;;;;;5014945;28;20667;-68
2022/09/18 06:34:56;;;;;;;8.43;2.70;;;;;;;;;;5016438;28;20180;-69
2022/09/18 06:37:22;;;;;;;8.33;3.50;;;;;;;;;;5016199;28;20756;-69
2022/09/18 06:39:48;;;;;;;16.27;4.37;;;;;;;;;;5016314;28;20215;-69
2022/09/18 06:42:15;;;;;;;7.37;3.40;;;;;;;;;;5015992;28;20176;-69
2022/09/18 06:44:41;;;;;;;9.80;3.63;;;;;;;;;;5014739;28;20211;-69
2022/09/18 06:47:07;;;;;;;10.07;3.07;;;;;;;;;;5016166;28;20675;-69
2022/09/18 06:49:33;;;;;;;12.57;3.03;;;;;;;;;;5016088;28;20223;-69
2022/09/18 06:51:59;;;;;;;10.43;2.60;;;;;;;;;;5015853;28;20203;-69
2022/09/18 06:54:26;;;;;;;8.63;2.23;;;;;;;;;;5016479;28;20180;-70
2022/09/18 06:56:51;;;;;;;7.93;2.40;;;;;;;;;;5014897;28;20183;-69
2022/09/18 06:59:17;;;;;;;7.83;2.10;;;;;;;;;;5016768;28;20210;-68
2022/09/18 07:01:46;;;;;;;6.63;1.93;;;;;;;;;;5015891;28;20176;-69
2022/09/18 07:04:12;;;;;;;6.33;1.90;;;;;;;;;;5015958;28;20261;-69
2022/09/18 07:06:38;;;;;;;7.87;2.30;;;;;;;;;;5014437;28;20590;-69
2022/09/18 07:09:04;;;;;;;6.17;2.27;;;;;;;;;;5014491;28;20671;-68
2022/09/18 07:11:30;;;;;;;6.77;2.27;;;;;;;;;;5015573;28;20187;-69
2022/09/18 07:13:56;;;;;;;7.60;2.40;;;;;;;;;;5014421;28;20230;-69
2022/09/18 07:16:22;;;;;;;5.80;2.40;;;;;;;;;;5014126;28;20250;-69
2022/09/18 07:18:48;;;;;;;7.20;2.10;;;;;;;;;;5015658;28;20184;-67
2022/09/18 07:21:14;;;;;;;5.53;2.40;;;;;;;;;;5014763;28;20563;-70
2022/09/18 07:23:40;;;;;;;5.10;2.47;;;;;;;;;;5014737;28;20204;-69
2022/09/18 07:26:06;;;;;;;7.70;2.77;;;;;;;;;;5014554;28;20659;-68
2022/09/18 07:28:32;;;;;;;5.53;3.00;;;;;;;;;;5013907;28;20659;-68
2022/09/18 07:31:02;;;;;;;7.77;2.93;;;;;;;;;;5015365;28;20200;-69
2022/09/18 07:33:28;;;;;;;4.53;3.20;;;;;;;;;;5013876;28;20180;-69
2022/09/18 07:35:58;;;;;;;5.47;2.57;;;;;;;;;;5015226;28;20184;-68
2022/09/18 07:38:24;;;;;;;6.43;3.10;;;;;;;;;;5012855;28;20186;-68
2022/09/18 07:40:50;;;;;;;8.70;2.47;;;;;;;;;;5014906;28;20200;-68
2022/09/18 07:43:16;;;;;;;5.63;2.50;;;;;;;;;;5013583;28;20180;-68
2022/09/18 07:45:43;;;;;;;5.77;2.50;;;;;;;;;;5014961;28;20180;-68
2022/09/18 07:48:09;;;;;;;7.23;2.47;;;;;;;;;;5013587;28;20559;-68
2022/09/18 07:50:35;;;;;;;6.37;2.40;;;;;;;;;;5014692;28;20192;-68
2022/09/18 07:53:02;;;;;;;8.13;2.80;;;;;;;;;;5013636;28;20632;-68
2022/09/18 07:55:28;;;;;;;6.53;2.70;;;;;;;;;;5013496;28;20180;-68
2022/09/18 07:57:58;;;;;;;6.97;2.67;;;;;;;;;;5014759;28;20190;-68
2022/09/18 08:00:25;;;;;;;6.17;2.83;;;;;;;;;;5013364;28;20302;-69
2022/09/18 08:02:59;;;;;;;5.40;2.37;;;;;;;;;;5013236;28;20214;-68
2022/09/18 08:05:25;;;;;;;9.13;2.63;;;;;;;;;;5014446;28;20241;-68
2022/09/18 08:07:51;;;;;;;7.20;2.47;;;;;;;;;;5013315;28;20550;-68
2022/09/18 08:10:17;;;;;;;3.77;2.33;;;;;;;;;;5014652;28;20738;-68
2022/09/18 08:12:43;;;;;;;4.33;2.47;;;;;;;;;;5015566;28;20203;-68
2022/09/18 08:15:09;;;;;;;6.00;2.40;;;;;;;;;;5016099;28;20234;-68
2022/09/18 08:17:35;;;;;;;6.90;2.30;;;;;;;;;;5016871;28;20184;-68
2022/09/18 08:20:10;;;;;;;8.33;2.30;;;;;;;;;;5016824;28;20218;-68
2022/09/18 08:22:40;;;;;;;8.47;2.50;;;;;;;;;;5016642;28;20275;-68
2022/09/18 08:25:06;;;;;;;8.47;2.40;;;;;;;;;;5016076;28;20202;-68
2022/09/18 08:27:36;;;;;;;5.87;2.57;;;;;;;;;;5013567;28;20202;-68
2022/09/18 08:30:02;;;;;;;6.40;2.30;;;;;;;;;;5014599;28;20196;-68
2022/09/18 08:32:28;;;;;;;7.57;2.60;;;;;;;;;;5013188;28;20168;-68
2022/09/18 08:34:54;;;;;;;5.43;2.60;;;;;;;;;;5012837;28;20649;-68
2022/09/18 08:37:20;;;;;;;7.53;2.30;;;;;;;;;;5012805;28;20188;-68
2022/09/18 08:39:46;;;;;;;5.93;2.63;;;;;;;;;;5012538;28;20203;-68
2022/09/18 08:42:21;;;;;;;6.60;2.63;;;;;;;;;;5012681;28;20266;-68
2022/09/18 08:44:49;;;;;;;9.87;2.13;;;;;;;;;;5013973;28;20278;-68
2022/09/18 08:47:19;;;;;;;5.63;2.10;;;;;;;;;;5014116;28;20168;-68
2022/09/18 08:49:54;;;;;;;7.23;2.30;;;;;;;;;;5012140;28;20294;-68
2022/09/18 08:52:25;;;;;;;5.17;1.43;;;;;;;;;;5012360;28;20617;-68
2022/09/18 08:55:01;;;;;;;5.57;1.90;;;;;;;;;;5012438;28;20661;-68
2022/09/18 08:57:44;;;;;;;7.80;2.23;;;;;;;;;;5012354;28;20175;-68
2022/09/18 09:00:30;;;;;;;4.33;1.80;;;;;;;;;;5013893;28;20210;-68
2022/09/18 09:03:17;;;;;;;10.07;2.00;;;;;;;;;;5013720;28;20259;-68
2022/09/18 09:05:46;;;;;;;4.00;1.90;;;;;;;;;;5006600;28;20192;-68
2022/09/18 09:08:33;;;;;;;4.77;2.30;;;;;;;;;;5013492;28;20180;-68
2022/09/18 09:11:08;;;;;;;4.97;1.90;;;;;;;;;;5013425;28;20253;-68
2022/09/18 09:13:53;;;;;;;7.20;2.17;;;;;;;;;;5013477;28;20167;-68
2022/09/18 09:16:31;;;;;;;5.03;2.10;;;;;;;;;;5013456;28;20176;-67
2022/09/18 09:18:59;;;;;;;5.53;2.27;;;;;;;;;;5011819;28;20187;-68
2022/09/18 09:21:30;;;;;;;6.30;2.00;;;;;;;;;;5013435;28;20191;-67
2022/09/18 09:24:05;;;;;;;9.47;2.80;;;;;;;;;;5013558;28;20286;-68
2022/09/18 09:26:33;;;;;;;5.83;2.30;;;;;;;;;;5013194;28;20179;-68
2022/09/18 09:29:13;;;;;;;5.00;2.03;;;;;;;;;;5012045;28;20214;-68
2022/09/18 09:31:42;;;;;;;4.93;1.97;;;;;;;;;;5013498;28;20175;-68
2022/09/18 09:34:18;;;;;;;6.40;2.00;;;;;;;;;;5013792;28;20184;-69
2022/09/18 09:36:46;;;;;;;3.13;1.87;;;;;;;;;;5013561;28;20183;-69
2022/09/18 09:39:14;;;;;;;7.83;3.77;;;;;;;;;;5013604;28;20664;-68
2022/09/18 09:41:48;;;;;;;11.00;2.97;;;;;;;;;;5011910;28;20241;-68
2022/09/18 09:44:17;;;;;;;4.93;2.40;;;;;;;;;;5013193;28;20549;-68
2022/09/18 09:46:49;;;;;;;8.80;3.60;;;;;;;;;;5013547;28;20633;-68
2022/09/18 09:49:23;;;;;;;7.37;3.43;;;;;;;;;;5013500;28;20196;-68
2022/09/18 09:51:52;;;;;;;24.90;14.33;;;;;;;;;;5012011;28;20164;-68
2022/09/18 09:54:18;;;;;;;21.83;11.60;;;;;;;;;;5011760;28;20183;-68
2022/09/18 09:56:44;;;;;;;25.87;13.77;;;;;;;;;;5013021;28;20187;-68
2022/09/18 09:59:29;;;;;;;12.23;6.30;;;;;;;;;;5012974;28;20203;-68
2022/09/18 10:01:55;;;;;;;30.77;24.53;;;;;;;;;;5012351;28;20207;-68
2022/09/18 10:04:39;;;;;;;11.00;7.07;;;;;;;;;;5015342;28;20211;-67
2022/09/18 10:07:19;;;;;;;7.90;5.10;;;;;;;;;;5016751;28;20198;-68
2022/09/18 10:09:50;;;;;;;8.00;4.13;;;;;;;;;;5015405;28;20287;-69
2022/09/18 10:12:28;;;;;;;6.77;4.43;;;;;;;;;;5016865;28;20165;-68
2022/09/18 10:14:56;;;;;;;4.47;2.87;;;;;;;;;;5015270;28;20179;-68
2022/09/18 10:17:23;;;;;;;12.40;4.20;;;;;;;;;;5015202;28;20179;-68
2022/09/18 10:19:49;;;;;;;11.17;6.60;;;;;;;;;;5016303;28;20219;-68
2022/09/18 10:22:18;;;;;;;8.90;4.57;;;;;;;;;;5016429;28;20549;-68
2022/09/18 10:25:10;;;;;;;14.33;7.77;;;;;;;;;;5016256;28;20203;-68
2022/09/18 10:27:36;;;;;;;16.73;11.67;;;;;;;;;;5014336;28;20195;-68
2022/09/18 10:30:11;;;;;;;7.80;4.83;;;;;;;;;;5016103;28;20196;-68
2022/09/18 10:32:38;;;;;;;15.37;5.70;;;;;;;;;;5016798;28;20166;-68
2022/09/18 10:35:23;;;;;;;8.40;4.00;;;;;;;;;;5015138;28;20242;-68
2022/09/18 10:37:49;;;;;;;28.80;21.83;;;;;;;;;;5016484;28;20266;-68
2022/09/18 10:40:29;;;;;;;18.47;10.77;;;;;;;;;;5014886;28;20339;-68
2022/09/18 10:42:55;;;;;;;20.70;12.77;;;;;;;;;;5015988;28;20179;-68
2022/09/18 10:45:24;;;;;;;9.77;5.07;;;;;;;;;;5015879;28;20215;-68
2022/09/18 10:47:50;;;;;;;9.87;5.27;;;;;;;;;;5014569;28;20253;-68
2022/09/18 10:50:18;;;;;;;7.87;3.50;;;;;;;;;;5015887;28;20274;-68
2022/09/18 10:52:45;;;;;;;3.37;2.50;;;;;;;;;;5015697;28;20172;-68
2022/09/18 10:55:20;;;;;;;5.80;3.73;;;;;;;;;;5015614;28;20172;-68
2022/09/18 10:58:01;;;;;;;7.50;5.27;;;;;;;;;;5015689;28;20186;-68
2022/09/18 11:00:28;;;;;;;13.73;11.03;;;;;;;;;;5016201;28;20235;-67
2022/09/18 11:02:56;;;;;;;8.13;6.73;;;;;;;;;;5015844;28;20202;-67
2022/09/18 11:05:29;;;;;;;8.37;3.93;;;;;;;;;;5014616;28;20203;-66
2022/09/18 11:08:05;;;;;;;10.47;8.63;;;;;;;;;;5014332;28;20727;-65
2022/09/18 11:10:32;;;;;;;20.30;15.77;;;;;;;;;;5014182;28;20203;-68
2022/09/18 11:12:59;;;;;;;18.00;12.10;;;;;;;;;;5015060;28;20176;-68
2022/09/18 11:15:27;;;;;;;8.83;5.33;;;;;;;;;;5014028;28;20352;-68
2022/09/18 11:17:54;;;;;;;8.13;5.20;;;;;;;;;;5015608;28;20179;-68
2022/09/18 11:20:23;;;;;;;9.10;2.87;;;;;;;;;;5015144;28;20247;-68
2022/09/18 11:22:50;;;;;;;5.13;3.13;;;;;;;;;;5015469;28;20175;-68
2022/09/18 11:25:16;;;;;;;7.67;5.30;;;;;;;;;;5015289;28;20236;-68
2022/09/18 11:27:46;;;;;;;22.17;13.37;;;;;;;;;;5014996;28;20495;-68
2022/09/18 11:30:13;;;;;;;5.60;3.30;;;;;;;;;;5013584;28;20224;-66
2022/09/18 11:32:40;;;;;;;5.00;3.67;;;;;;;;;;5015275;28;20606;-67
2022/09/18 11:35:12;;;;;;;13.17;10.07;;;;;;;;;;5013672;28;20663;-68
2022/09/18 11:37:50;;;;;;;8.00;5.70;;;;;;;;;;5015307;28;20175;-68
2022/09/18 11:40:31;;;;;;;7.33;5.73;;;;;;;;;;5014827;28;20199;-67
2022/09/18 11:42:58;;;;;;;7.73;5.13;;;;;;;;;;5013555;28;20176;-67
2022/09/18 11:45:42;;;;;;;6.30;4.87;;;;;;;;;;5013409;28;20215;-67
2022/09/18 11:48:08;;;;;;;8.13;5.13;;;;;;;;;;5013476;28;20271;-65
2022/09/18 11:50:36;;;;;;;6.13;2.40;;;;;;;;;;5014625;28;20623;-68
2022/09/18 11:53:10;;;;;;;9.03;6.00;;;;;;;;;;5014903;28;20211;-68
2022/09/18 11:55:39;;;;;;;14.77;11.57;;;;;;;;;;5013220;28;20183;-68
2022/09/18 11:58:08;;;;;;;3.60;1.60;;;;;;;;;;5013326;28;20179;-68
2022/09/18 12:00:47;;;;;;;2.67;2.10;;;;;;;;;;5014533;28;20228;-68
2022/09/18 12:03:25;;;;;;;13.10;10.00;;;;;;;;;;5014614;28;20172;-68
2022/09/18 12:05:53;;;;;;;15.57;12.43;;;;;;;;;;5014293;28;20214;-68
2022/09/18 12:08:26;;;;;;;5.07;3.87;;;;;;;;;;5014388;28;20294;-68
2022/09/18 12:11:03;;;;;;;5.53;2.40;;;;;;;;;;5014358;28;20215;-67
2022/09/18 12:13:34;;;;;;;4.17;2.20;;;;;;;;;;5012862;28;20170;-67
2022/09/18 12:16:19;;;;;;;3.13;1.63;;;;;;;;;;5014330;28;20307;-68
2022/09/18 12:19:03;;;;;;;4.83;3.30;;;;;;;;;;5014253;28;20217;-68
2022/09/18 12:21:44;;;;;;;4.47;2.00;;;;;;;;;;5013020;28;20544;-67
2022/09/18 12:24:14;;;;;;;4.67;2.97;;;;;;;;;;5013777;28;20196;-67
2022/09/18 12:26:45;;;;;;;6.50;4.83;;;;;;;;;;5014001;28;20230;-67
2022/09/18 12:29:19;;;;;;;4.20;2.70;;;;;;;;;;5013852;28;20601;-68
2022/09/18 12:32:03;;;;;;;3.60;2.10;;;;;;;;;;5013990;28;20167;-67
2022/09/18 12:34:45;;;;;;;9.07;4.07;;;;;;;;;;5012509;28;20219;-68
2022/09/18 12:37:38;;;;;;;5.83;3.20;;;;;;;;;;5013868;28;20179;-68
2022/09/18 12:40:15;;;;;;;19.40;15.43;;;;;;;;;;5013869;28;20556;-67
2022/09/18 12:42:42;;;;;;;18.93;12.20;;;;;;;;;;5012448;28;20179;-68
2022/09/18 12:45:26;;;;;;;20.27;14.57;;;;;;;;;;5013875;28;20192;-68
2022/09/18 12:48:07;;;;;;;9.03;5.23;;;;;;;;;;5012489;28;20183;-68
2022/09/18 12:50:33;;;;;;;34.03;18.47;;;;;;;;;;5013658;28;20221;-68
2022/09/18 12:53:12;;;;;;;13.57;8.90;;;;;;;;;;5013552;28;20632;-67
2022/09/18 12:55:50;;;;;;;7.53;3.90;;;;;;;;;;5012307;28;20266;-68
2022/09/18 12:58:35;;;;;;;22.10;17.07;;;;;;;;;;5013713;28;20183;-68
2022/09/18 13:01:03;;;;;;;4.77;3.00;;;;;;;;;;5012284;28;20207;-68
2022/09/18 13:03:33;;;;;;;6.67;2.60;;;;;;;;;;5012088;28;20183;-68
2022/09/18 13:06:01;;;;;;;6.90;2.30;;;;;;;;;;5013453;28;20254;-69
2022/09/18 13:08:31;;;;;;;7.37;2.90;;;;;;;;;;5013694;28;20623;-68
2022/09/18 13:11:03;;;;;;;5.53;2.43;;;;;;;;;;5013221;28;20204;-68
2022/09/18 13:13:47;;;;;;;4.27;2.13;;;;;;;;;;5012091;28;20172;-69
2022/09/18 13:16:32;;;;;;;4.90;2.13;;;;;;;;;;5012167;28;20551;-68
2022/09/18 13:19:04;;;;;;;37.33;23.53;;;;;;;;;;5013162;28;20179;-68
2022/09/18 13:21:40;;;;;;;6.10;2.97;;;;;;;;;;5013421;28;20263;-69
2022/09/18 13:24:10;;;;;;;8.17;4.60;;;;;;;;;;5013293;28;20281;-69
2022/09/18 13:26:38;;;;;;;9.83;5.37;;;;;;;;;;5013372;28;20305;-69
2022/09/18 13:29:24;;;;;;;13.97;8.50;;;;;;;;;;5013137;28;20168;-68
2022/09/18 13:31:53;;;;;;;8.00;5.50;;;;;;;;;;5013315;28;20192;-68
2022/09/18 13:34:19;;;;;;;9.10;4.07;;;;;;;;;;5013223;28;20275;-68
2022/09/18 13:36:46;;;;;;;9.63;4.87;;;;;;;;;;5015585;28;20207;-68
2022/09/18 13:39:26;;;;;;;6.40;3.60;;;;;;;;;;5017208;28;20210;-68
2022/09/18 13:41:54;;;;;;;5.80;2.90;;;;;;;;;;5017088;28;20259;-68
2022/09/18 13:44:21;;;;;;;5.13;2.70;;;;;;;;;;5017005;28;20206;-68
2022/09/18 13:46:48;;;;;;;5.03;3.43;;;;;;;;;;5016946;28;20551;-68
2022/09/18 13:49:18;;;;;;;5.60;2.80;;;;;;;;;;5016898;28;20574;-68
2022/09/18 13:51:44;;;;;;;7.73;3.50;;;;;;;;;;5015637;28;20637;-68
2022/09/18 13:54:13;;;;;;;4.97;3.10;;;;;;;;;;5015649;28;20191;-68
2022/09/18 13:57:13;;;;;;;55.93;39.87;;;;;;;;;;5015435;28;20188;-68
2022/09/18 13:59:57;;;;;;;19.43;14.70;;;;;;;;;;5015531;28;20203;-68
2022/09/18 14:02:32;;;;;;;37.23;26.40;;;;;;;;;;5015456;28;20230;-68
2022/09/18 14:05:25;;;;;;;41.33;34.67;;;;;;;;;;5016808;28;20203;-68
2022/09/18 14:07:52;;;;;;;12.50;8.07;;;;;;;;;;5014278;28;20184;-68
2022/09/18 14:10:23;;;;;;;7.87;3.47;;;;;;;;;;5016534;28;20230;-68
2022/09/18 14:13:08;;;;;;;5.63;3.70;;;;;;;;;;5015329;28;20180;-68
2022/09/18 14:15:34;;;;;;;7.30;3.33;;;;;;;;;;5016499;28;20191;-67
2022/09/18 14:18:06;;;;;;;5.63;3.10;;;;;;;;;;5016540;28;20321;-67
2022/09/18 14:20:32;;;;;;;6.80;2.97;;;;;;;;;;5014912;28;20219;-68
2022/09/18 14:23:18;;;;;;;5.67;3.20;;;;;;;;;;5016455;28;20245;-68
2022/09/18 14:25:46;;;;;;;5.37;2.83;;;;;;;;;;5016704;28;20581;-68
2022/09/18 14:28:13;;;;;;;6.40;3.10;;;;;;;;;;5015026;28;20183;-68
2022/09/18 14:30:39;;;;;;;4.53;2.97;;;;;;;;;;5016173;28;20209;-68
2022/09/18 14:33:10;;;;;;;8.87;3.47;;;;;;;;;;5014904;28;20184;-67
2022/09/18 14:35:42;;;;;;;5.90;3.70;;;;;;;;;;5014897;28;20642;-68
2022/09/18 14:38:16;;;;;;;4.77;3.00;;;;;;;;;;5016128;28;20554;-69
2022/09/18 14:40:42;;;;;;;8.37;3.90;;;;;;;;;;5014762;28;20208;-69
2022/09/18 14:43:19;;;;;;;6.17;2.90;;;;;;;;;;5014758;28;20183;-68
2022/09/18 14:45:48;;;;;;;11.87;5.63;;;;;;;;;;5015869;28;20278;-69
2022/09/18 14:48:21;;;;;;;8.17;4.43;;;;;;;;;;5014032;28;20179;-69
2022/09/18 14:51:01;;;;;;;5.30;2.40;;;;;;;;;;5014561;28;20207;-69
2022/09/18 14:53:28;;;;;;;9.63;3.70;;;;;;;;;;5015926;28;20175;-69
2022/09/18 14:56:00;;;;;;;9.50;3.70;;;;;;;;;;5016142;28;20187;-68
2022/09/18 14:58:29;;;;;;;12.80;4.50;;;;;;;;;;5014537;28;20187;-69